Airfield :
LOGIN :

Register | Disclaimer

   EN    FR    IT 

 










Legend :    VFR   Marginal VFR   IFR   Intensive IFR   Very Intensive IFR
Visi :
Ceiling :
>= 8 km
>= 3000ft
5 to 8 km
1000 to 3000 ft
1500m to 5 km
500 to 1000 ft
800 to 1500m
200 to 500 ft
< 800m
< 200 ft
Symbols :   Thunderstorms  Fog  Heavy snow  Heavy precipitations  Wind > 20 kt
SIGMETs :     Misc.  Thunderstorms  Icing  Turbulence  Mountain Waves  Volcanic Ashes







- Airport Elevation : 12 ft
- IATA code : NCE
- Download approach charts


LFMN - Nice

EXPIRED METARs :
  • 220030Z 32009KT 9999 FEW070 BKN093 08/M00 Q1004 TEMPO RA
  • 220000Z 32010KT 9999 FEW070 BKN093 08/00 Q1004 TEMPO RA

TAF TAF LFMN
Valid from the 21 at 21:00 until the 23 at 03:00 UTC


212000Z 2121/2303 VRB05KT 9999 SCT070 BKN090
TEMPO 2212/2217 SHRA SCT040TCU
TEMPO 2217/2220 27010KT
ATIS : +33 4 93 17 21 16
No reported NOTAMs for that airfield.
3 SIGMETs reported for the Marseille FIR (LFMM) :
 
Embedded thunderstorms
LFMM SIGMET 9 VALID 220000/220400 LFPW
LFMM MARSEILLE FIR/UIR EMBD TS FCST WI N3930 E00430 - N4200 E00430 - N4200 E00415 - N4215 E00815 - N4130 E00945 - N4115 E00800 - N4000 E00800 - N3930 E00430 TOP FL230 STNR NC=
Severe turbulence
LFMM SIGMET 11 VALID 220200/220600 LFPW
LFMM MARSEILLE FIR/UIR SEV TURB FCST WI N4215 E00245 - N4215 E00230 - N4630 E00300 - N4630 E00515 - N4215 E00245 FL170/250 STNR NC=
Severe turbulence
LFMM SIGMET 10 VALID 220000/220400 LFPW
LFMM MARSEILLE FIR/UIR SEV TURB FCST WI N4200 E00400 - N4215 E00230 - N4300 E00230 - N4245 E00400 - N4200 E00400 SFC/FL050 STNR NC=



MET'MAP, your aeronautical weather chart ! - Copyright ORBIFLY December 2007 - Disclaimer

ORBIFLY MET'MAP TEAM :

Programming & Development : Alexandra Zaïnal
Concept & Development : Baudouin d'Aumeries
Co-Development & Prog : Marc-Olivier Méhu
Technical & hardware support : Manuel Goepfert

Contact : metmap@orbifly.com




SOURCES & CREDITS :

   NOAA